createdAt,value
2018-10-19T00:00:35.070Z,16.10
2018-10-19T00:01:08.588Z,16.20
2018-10-19T00:01:42.094Z,16.10
2018-10-19T00:02:15.555Z,16.10
2018-10-19T00:02:49.061Z,16.10
2018-10-19T00:03:22.527Z,16.10
2018-10-19T00:03:56.208Z,16.10
2018-10-19T00:04:29.768Z,16.10
2018-10-19T00:05:03.428Z,16.10
2018-10-19T00:05:36.892Z,16.10
2018-10-19T00:06:10.391Z,16.10
2018-10-19T00:06:43.920Z,16.10
2018-10-19T00:07:17.595Z,16.10
2018-10-19T00:07:51.256Z,16.10
2018-10-19T00:08:25.244Z,16.20
2018-10-19T00:08:59.439Z,16.10
2018-10-19T00:09:32.897Z,16.10
2018-10-19T00:10:07.332Z,16.10
2018-10-19T00:10:40.968Z,16.20
2018-10-19T00:11:14.569Z,16.10
2018-10-19T00:11:48.018Z,16.10
2018-10-19T00:12:21.534Z,16.10
2018-10-19T00:12:55.058Z,16.10
2018-10-19T00:13:28.452Z,16.10
2018-10-19T00:14:01.998Z,16.20
2018-10-19T00:14:35.815Z,16.10
2018-10-19T00:15:09.655Z,16.20
2018-10-19T00:15:43.097Z,16.20
2018-10-19T00:16:16.593Z,16.20
2018-10-19T00:16:50.320Z,16.20
2018-10-19T00:17:24.026Z,16.10
2018-10-19T00:17:57.698Z,16.10
2018-10-19T00:18:31.214Z,16.10
2018-10-19T00:19:05.638Z,16.20
2018-10-19T00:19:39.152Z,16.10
2018-10-19T00:20:12.648Z,16.20
2018-10-19T00:20:46.586Z,16.20
2018-10-19T00:21:20.148Z,16.20
2018-10-19T00:21:53.620Z,16.20
2018-10-19T00:22:27.083Z,16.20
2018-10-19T00:23:00.619Z,16.20
2018-10-19T00:23:34.144Z,16.20
2018-10-19T00:24:07.704Z,16.20
2018-10-19T00:24:41.746Z,16.20
2018-10-19T00:25:15.311Z,16.20
2018-10-19T00:25:48.788Z,16.20
2018-10-19T00:26:22.352Z,16.20
2018-10-19T00:26:55.839Z,16.20
2018-10-19T00:27:29.334Z,16.20
2018-10-19T00:28:02.919Z,16.20
2018-10-19T00:28:36.667Z,16.20
2018-10-19T00:29:10.204Z,16.20
2018-10-19T00:29:43.905Z,16.20
2018-10-19T00:30:17.405Z,16.20
2018-10-19T00:30:50.896Z,16.20
2018-10-19T00:31:24.383Z,16.20
2018-10-19T00:31:58.094Z,16.20
2018-10-19T00:32:31.540Z,16.20
2018-10-19T00:33:05.968Z,16.20
2018-10-19T00:33:39.480Z,16.20
2018-10-19T00:34:12.974Z,16.20
2018-10-19T00:34:46.454Z,16.20
2018-10-19T00:35:19.951Z,16.20
2018-10-19T00:35:53.382Z,16.20
2018-10-19T00:36:26.861Z,16.20
2018-10-19T00:37:00.399Z,16.20
2018-10-19T00:37:33.892Z,16.20
2018-10-19T00:38:07.378Z,16.20
2018-10-19T00:38:40.872Z,16.20
2018-10-19T00:39:14.368Z,16.20
2018-10-19T00:39:47.801Z,16.20
2018-10-19T00:40:21.368Z,16.20
2018-10-19T00:40:54.910Z,16.20
2018-10-19T00:41:28.563Z,16.20
2018-10-19T00:42:02.071Z,16.20
2018-10-19T00:42:35.760Z,16.20
2018-10-19T00:43:09.275Z,16.20
2018-10-19T00:43:42.827Z,16.20
2018-10-19T00:44:16.283Z,16.10
2018-10-19T00:44:49.727Z,16.10
2018-10-19T00:45:28.388Z,16.10
2018-10-19T00:46:01.911Z,16.10
2018-10-19T00:46:35.427Z,16.10
2018-10-19T00:47:08.968Z,16.10
2018-10-19T00:47:42.471Z,16.10
2018-10-19T00:48:17.067Z,16.10
2018-10-19T00:48:50.528Z,16.10
2018-10-19T00:49:24.007Z,16.10
2018-10-19T00:49:57.889Z,16.10
2018-10-19T00:50:31.387Z,16.10
2018-10-19T00:51:05.894Z,16.10
2018-10-19T00:51:39.908Z,16.10
2018-10-19T00:52:13.420Z,16.10
2018-10-19T00:52:46.871Z,16.10
2018-10-19T00:53:20.360Z,16.10
2018-10-19T00:53:53.847Z,16.10
2018-10-19T00:54:27.364Z,16.10
2018-10-19T00:55:00.849Z,16.10
2018-10-19T00:55:34.604Z,16.10
2018-10-19T00:56:08.122Z,16.10
2018-10-19T00:56:41.648Z,16.10
2018-10-19T00:57:15.171Z,16.10
2018-10-19T00:57:48.667Z,16.10
2018-10-19T00:58:22.160Z,16.10
2018-10-19T00:58:55.632Z,16.10
2018-10-19T00:59:29.152Z,16.10
2018-10-19T01:00:02.621Z,16.20
2018-10-19T01:00:37.760Z,16.10
2018-10-19T01:01:11.189Z,16.20
2018-10-19T01:01:44.623Z,16.10
2018-10-19T01:02:18.180Z,16.20
2018-10-19T01:02:52.406Z,16.10
2018-10-19T01:03:25.837Z,16.10
2018-10-19T01:04:00.034Z,16.10
2018-10-19T01:04:33.504Z,16.10
2018-10-19T01:05:07.091Z,16.10
2018-10-19T01:05:41.109Z,16.10
2018-10-19T01:06:14.629Z,16.10
2018-10-19T01:06:48.133Z,16.10
2018-10-19T01:07:21.630Z,16.10
2018-10-19T01:07:55.585Z,16.10
2018-10-19T01:08:29.735Z,16.10
2018-10-19T01:09:03.432Z,16.10
2018-10-19T01:09:36.936Z,16.10
2018-10-19T01:10:10.494Z,16.10
2018-10-19T01:10:44.061Z,16.10
2018-10-19T01:11:17.564Z,16.10
2018-10-19T01:11:51.086Z,16.10
2018-10-19T01:12:24.611Z,16.10
2018-10-19T01:12:59.247Z,16.10
2018-10-19T01:13:32.767Z,16.10
2018-10-19T01:14:07.171Z,16.10
2018-10-19T01:14:40.763Z,16.10
2018-10-19T01:15:14.360Z,16.10
2018-10-19T01:15:47.792Z,16.10
2018-10-19T01:16:21.309Z,16.10
2018-10-19T01:16:54.796Z,16.10
2018-10-19T01:17:28.281Z,16.10
2018-10-19T01:18:01.824Z,16.10
2018-10-19T01:18:35.359Z,16.10
2018-10-19T01:19:08.908Z,16.10
2018-10-19T01:19:42.466Z,16.10
2018-10-19T01:20:15.918Z,16.10
2018-10-19T01:20:49.355Z,16.10
2018-10-19T01:21:22.882Z,16.10
2018-10-19T01:21:56.374Z,16.10
2018-10-19T01:22:29.925Z,16.10
2018-10-19T01:23:03.517Z,16.00
2018-10-19T01:23:37.111Z,16.10
2018-10-19T01:24:10.624Z,16.00
2018-10-19T01:24:44.148Z,16.00
2018-10-19T01:25:17.720Z,16.00
2018-10-19T01:25:51.268Z,16.00
2018-10-19T01:26:24.839Z,16.00
2018-10-19T01:26:58.372Z,16.00
2018-10-19T01:27:31.829Z,16.00
2018-10-19T01:28:05.484Z,16.00
2018-10-19T01:28:38.978Z,16.00
2018-10-19T01:29:12.453Z,16.00
2018-10-19T01:29:46.424Z,16.00
2018-10-19T01:30:20.185Z,16.00
2018-10-19T01:30:53.641Z,16.00
2018-10-19T01:32:06.816Z,16.00
2018-10-19T01:32:40.273Z,16.00
2018-10-19T01:33:13.902Z,16.00
2018-10-19T01:33:47.579Z,16.00
2018-10-19T01:34:21.298Z,16.00
2018-10-19T01:34:54.903Z,16.00
2018-10-19T01:35:28.355Z,15.90
2018-10-19T01:36:01.845Z,15.90
2018-10-19T01:36:40.614Z,15.90
2018-10-19T01:37:14.066Z,15.90
2018-10-19T01:37:47.543Z,15.90
2018-10-19T01:38:21.272Z,16.00
2018-10-19T01:38:54.884Z,15.90
2018-10-19T01:39:28.329Z,15.90
2018-10-19T01:40:01.803Z,16.00
2018-10-19T01:40:35.259Z,15.90
2018-10-19T01:41:08.884Z,16.00
2018-10-19T01:41:43.020Z,15.90
2018-10-19T01:42:16.551Z,16.00
2018-10-19T01:42:50.067Z,16.00
2018-10-19T01:43:23.512Z,15.90
2018-10-19T01:43:57.026Z,15.90
2018-10-19T01:44:32.078Z,15.90
2018-10-19T01:45:07.754Z,15.90
2018-10-19T01:45:46.630Z,15.90
2018-10-19T01:46:20.156Z,15.90
2018-10-19T01:46:53.652Z,15.90
2018-10-19T01:47:27.143Z,15.90
2018-10-19T01:48:00.648Z,15.90
2018-10-19T01:48:34.219Z,15.90
2018-10-19T01:49:07.626Z,15.90
2018-10-19T01:49:41.120Z,15.90
2018-10-19T01:50:14.699Z,15.90
2018-10-19T01:50:48.370Z,15.90
2018-10-19T01:51:21.845Z,15.90
2018-10-19T01:51:55.327Z,15.90
2018-10-19T01:52:28.845Z,15.90
2018-10-19T01:53:02.407Z,15.90
2018-10-19T01:53:35.918Z,15.90
2018-10-19T01:54:09.636Z,15.90
2018-10-19T01:54:43.134Z,15.90
2018-10-19T01:55:16.594Z,15.90
2018-10-19T01:55:50.062Z,15.90
2018-10-19T01:56:23.567Z,15.90
2018-10-19T01:56:57.079Z,16.00
2018-10-19T01:57:30.579Z,15.90
2018-10-19T01:58:04.043Z,16.00
2018-10-19T01:58:37.587Z,16.00
2018-10-19T01:59:11.096Z,16.00
2018-10-19T01:59:44.601Z,16.00
2018-10-19T02:00:18.066Z,16.00
2018-10-19T02:00:51.633Z,16.00
2018-10-19T02:01:25.094Z,16.00
2018-10-19T02:01:58.580Z,16.10
2018-10-19T02:02:32.157Z,16.00
2018-10-19T02:03:05.943Z,16.10
2018-10-19T02:03:39.429Z,16.00
2018-10-19T02:04:12.964Z,16.00
2018-10-19T02:04:46.492Z,16.10
2018-10-19T02:05:20.792Z,16.10
2018-10-19T02:05:54.319Z,16.10
2018-10-19T02:06:27.817Z,16.00
2018-10-19T02:07:01.345Z,16.00
2018-10-19T02:07:34.856Z,16.00
2018-10-19T02:08:09.656Z,16.00
2018-10-19T02:08:43.109Z,16.10
2018-10-19T02:09:16.639Z,16.00
2018-10-19T02:09:50.170Z,16.00
2018-10-19T02:10:23.606Z,16.10
2018-10-19T02:10:57.110Z,16.00
2018-10-19T02:11:30.659Z,16.10
2018-10-19T02:12:04.255Z,16.10
2018-10-19T02:12:37.774Z,16.00
2018-10-19T02:13:11.510Z,16.00
2018-10-19T02:13:44.987Z,16.10
2018-10-19T02:14:18.552Z,16.10
2018-10-19T02:14:52.115Z,16.00
2018-10-19T02:15:25.575Z,16.00
2018-10-19T02:15:59.037Z,16.00
2018-10-19T02:16:32.500Z,16.10
2018-10-19T02:17:06.746Z,16.00
2018-10-19T02:17:40.221Z,16.10
2018-10-19T02:18:13.731Z,16.00
2018-10-19T02:18:47.186Z,16.00
2018-10-19T02:19:20.680Z,16.00
2018-10-19T02:19:54.103Z,16.00
2018-10-19T02:20:27.595Z,16.00
2018-10-19T02:21:01.091Z,16.00
2018-10-19T02:21:34.598Z,16.00
2018-10-19T02:22:08.320Z,16.00
2018-10-19T02:22:41.793Z,16.00
2018-10-19T02:23:15.293Z,16.00
2018-10-19T02:23:48.747Z,16.00
2018-10-19T02:24:22.464Z,16.00
2018-10-19T02:24:55.920Z,16.00
2018-10-19T02:25:29.472Z,16.00
2018-10-19T02:26:03.114Z,16.10
2018-10-19T02:26:36.680Z,16.00
2018-10-19T02:27:10.265Z,16.10
2018-10-19T02:27:43.764Z,16.10
2018-10-19T02:28:17.221Z,16.10
2018-10-19T02:28:50.717Z,16.00
2018-10-19T02:29:24.258Z,16.10
2018-10-19T02:29:57.885Z,16.10
2018-10-19T02:30:31.407Z,16.10
2018-10-19T02:31:05.876Z,16.00
2018-10-19T02:31:39.308Z,16.10
2018-10-19T02:32:12.853Z,16.10
2018-10-19T02:32:46.327Z,16.10
2018-10-19T02:33:19.883Z,16.10
2018-10-19T02:33:53.330Z,16.10
2018-10-19T02:34:26.791Z,16.10
2018-10-19T02:35:00.291Z,16.10
2018-10-19T02:35:33.774Z,16.10
2018-10-19T02:36:07.312Z,16.10
2018-10-19T02:36:40.762Z,16.10
2018-10-19T02:37:14.318Z,16.10
2018-10-19T02:37:47.880Z,16.10
2018-10-19T02:38:21.346Z,16.10
2018-10-19T02:38:54.849Z,16.10
2018-10-19T02:39:28.362Z,16.10
2018-10-19T02:40:01.973Z,16.10
2018-10-19T02:40:35.911Z,16.10
2018-10-19T02:41:09.464Z,16.10
2018-10-19T02:41:43.549Z,16.00
2018-10-19T02:42:17.014Z,16.10
2018-10-19T02:42:50.516Z,16.00
2018-10-19T02:43:24.074Z,16.00
2018-10-19T02:43:58.088Z,16.00
2018-10-19T02:44:31.545Z,16.00
2018-10-19T02:45:05.721Z,16.00
2018-10-19T02:45:41.522Z,16.00
2018-10-19T02:46:15.002Z,16.00
2018-10-19T02:46:48.444Z,16.00
2018-10-19T02:47:21.909Z,16.10
2018-10-19T02:47:55.381Z,16.10
2018-10-19T02:48:28.881Z,16.00
2018-10-19T02:49:02.423Z,16.00
2018-10-19T02:49:35.864Z,16.00
2018-10-19T02:50:10.386Z,16.00
2018-10-19T02:50:43.922Z,16.00
2018-10-19T02:51:17.528Z,16.10
2018-10-19T02:51:51.020Z,16.00
2018-10-19T02:52:24.509Z,16.10
2018-10-19T02:52:58.125Z,16.00
2018-10-19T02:53:31.559Z,16.00
2018-10-19T02:54:05.760Z,16.00
2018-10-19T02:54:39.264Z,16.00
2018-10-19T02:55:12.742Z,16.00
2018-10-19T02:55:46.255Z,16.00
2018-10-19T02:56:19.741Z,16.00
2018-10-19T02:56:53.201Z,16.00
2018-10-19T02:57:26.668Z,16.00
2018-10-19T02:58:00.145Z,16.00
2018-10-19T02:58:33.644Z,16.00
2018-10-19T02:59:07.297Z,16.00
2018-10-19T02:59:40.718Z,16.00
2018-10-19T03:00:14.177Z,16.00
2018-10-19T03:00:47.702Z,16.00
2018-10-19T03:01:21.176Z,16.00
2018-10-19T03:01:54.624Z,16.00
2018-10-19T03:02:28.110Z,16.00
2018-10-19T03:03:01.689Z,16.00
2018-10-19T03:03:35.162Z,16.00
2018-10-19T03:04:08.649Z,16.00
2018-10-19T03:04:42.624Z,15.90
2018-10-19T03:05:16.242Z,15.90
2018-10-19T03:05:49.659Z,15.90
2018-10-19T03:06:23.139Z,15.90
2018-10-19T03:06:56.685Z,16.00
2018-10-19T03:07:30.156Z,15.90
2018-10-19T03:08:03.679Z,15.90
2018-10-19T03:08:37.164Z,15.90
2018-10-19T03:09:11.454Z,16.00
2018-10-19T03:09:44.899Z,15.90
2018-10-19T03:10:18.389Z,15.90
2018-10-19T03:10:51.942Z,15.90
2018-10-19T03:11:25.399Z,15.90
2018-10-19T03:11:58.857Z,15.90
2018-10-19T03:12:32.379Z,16.00
2018-10-19T03:13:06.463Z,15.90
2018-10-19T03:13:40.199Z,15.90
2018-10-19T03:14:13.686Z,15.90
2018-10-19T03:14:47.327Z,15.90
2018-10-19T03:15:20.849Z,15.90
2018-10-19T03:15:54.290Z,15.90
2018-10-19T03:16:27.755Z,16.00
2018-10-19T03:17:01.249Z,16.00
2018-10-19T03:17:34.895Z,16.00
2018-10-19T03:18:08.392Z,16.00
2018-10-19T03:18:41.912Z,16.00
2018-10-19T03:19:15.370Z,16.00
2018-10-19T03:19:48.897Z,16.00
2018-10-19T03:20:22.470Z,16.00
2018-10-19T03:20:56.018Z,16.00
2018-10-19T03:21:29.513Z,16.00
2018-10-19T03:22:02.956Z,16.00
2018-10-19T03:22:37.171Z,16.00
2018-10-19T03:23:10.878Z,16.00
2018-10-19T03:23:44.355Z,16.00
2018-10-19T03:24:17.875Z,16.00
2018-10-19T03:24:51.331Z,16.00
2018-10-19T03:25:24.795Z,16.00
2018-10-19T03:25:58.279Z,16.00
2018-10-19T03:26:31.779Z,16.00
2018-10-19T03:27:06.447Z,16.00
2018-10-19T03:27:40.038Z,16.00
2018-10-19T03:28:13.574Z,16.00
2018-10-19T03:28:47.037Z,16.00
2018-10-19T03:29:20.622Z,16.00
2018-10-19T03:29:54.052Z,16.00
2018-10-19T03:30:27.596Z,16.00
2018-10-19T03:31:01.167Z,16.00
2018-10-19T03:31:34.583Z,16.00
2018-10-19T03:32:08.128Z,16.00
2018-10-19T03:32:41.591Z,16.00
2018-10-19T03:33:15.100Z,16.00
2018-10-19T03:33:48.566Z,16.00
2018-10-19T03:34:22.683Z,16.00
2018-10-19T03:34:56.221Z,16.00
2018-10-19T03:35:29.802Z,16.00
2018-10-19T03:36:03.307Z,15.90
2018-10-19T03:36:36.815Z,16.00
2018-10-19T03:37:10.278Z,15.90
2018-10-19T03:37:43.769Z,16.00
2018-10-19T03:38:17.242Z,16.00
2018-10-19T03:38:50.712Z,15.90
2018-10-19T03:39:24.218Z,16.00
2018-10-19T03:39:57.731Z,16.00
2018-10-19T03:40:31.268Z,15.90
2018-10-19T03:41:04.835Z,16.00
2018-10-19T03:41:38.573Z,15.90
2018-10-19T03:42:12.024Z,15.90
2018-10-19T03:42:45.510Z,15.90
2018-10-19T03:43:19.094Z,15.90
2018-10-19T03:43:52.551Z,15.90
2018-10-19T03:44:26.050Z,15.90
2018-10-19T03:44:59.579Z,15.90
2018-10-19T03:45:34.064Z,15.90
2018-10-19T03:46:07.717Z,15.90
2018-10-19T03:46:41.235Z,15.90
2018-10-19T03:47:14.866Z,16.00
2018-10-19T03:47:48.386Z,15.90
2018-10-19T03:48:21.876Z,16.00
2018-10-19T03:48:55.389Z,15.90
2018-10-19T03:49:28.880Z,15.90
2018-10-19T03:50:02.362Z,15.90
2018-10-19T03:50:35.826Z,15.90
2018-10-19T03:51:09.363Z,15.90
2018-10-19T03:51:42.816Z,16.00
2018-10-19T03:52:16.265Z,16.00
2018-10-19T03:52:50.292Z,15.90
2018-10-19T03:53:23.799Z,15.90
2018-10-19T03:53:57.304Z,15.90
2018-10-19T03:54:30.810Z,15.90
2018-10-19T03:55:04.329Z,15.90
2018-10-19T03:55:37.841Z,15.90
2018-10-19T03:56:11.352Z,16.00
2018-10-19T03:56:44.794Z,15.90
2018-10-19T03:57:18.268Z,15.90
2018-10-19T03:57:51.955Z,15.90
2018-10-19T03:58:25.458Z,15.90
2018-10-19T03:58:58.985Z,15.90
2018-10-19T03:59:32.733Z,15.90
2018-10-19T04:00:06.318Z,15.90
2018-10-19T04:00:39.913Z,15.90
2018-10-19T04:01:13.406Z,15.90
2018-10-19T04:01:46.894Z,15.90
2018-10-19T04:02:20.402Z,15.90
2018-10-19T04:02:53.956Z,15.90
2018-10-19T04:03:27.478Z,15.90
2018-10-19T04:04:00.974Z,15.80
2018-10-19T04:04:34.532Z,15.90
2018-10-19T04:05:08.111Z,15.80
2018-10-19T04:05:41.496Z,15.90
2018-10-19T04:06:15.008Z,15.90
2018-10-19T04:06:48.449Z,15.90
2018-10-19T04:07:22.007Z,15.90
2018-10-19T04:07:55.447Z,15.80
2018-10-19T04:08:28.934Z,15.90
2018-10-19T04:09:02.523Z,15.80
2018-10-19T04:09:35.918Z,15.90
2018-10-19T04:10:09.368Z,15.90
2018-10-19T04:10:42.844Z,15.90
2018-10-19T04:11:16.345Z,15.90
2018-10-19T04:11:49.808Z,15.90
2018-10-19T04:12:23.353Z,15.90
2018-10-19T04:12:56.846Z,15.90
2018-10-19T04:13:30.344Z,15.90
2018-10-19T04:14:03.857Z,15.90
2018-10-19T04:14:37.371Z,15.80
2018-10-19T04:15:10.918Z,15.80
2018-10-19T04:15:44.308Z,15.80
2018-10-19T04:16:17.801Z,15.80
2018-10-19T04:16:51.286Z,15.80
2018-10-19T04:17:24.814Z,15.80
2018-10-19T04:17:58.375Z,15.80
2018-10-19T04:18:31.832Z,15.80
2018-10-19T04:19:06.048Z,15.80
2018-10-19T04:19:39.480Z,15.80
2018-10-19T04:20:12.930Z,15.80
2018-10-19T04:20:46.380Z,15.80
2018-10-19T04:21:19.913Z,15.80
2018-10-19T04:21:53.371Z,15.80
2018-10-19T04:22:26.823Z,15.80
2018-10-19T04:23:06.246Z,15.80
2018-10-19T04:23:39.739Z,15.80
2018-10-19T04:24:13.216Z,15.80
2018-10-19T04:24:46.728Z,15.80
2018-10-19T04:25:20.239Z,15.80
2018-10-19T04:25:53.666Z,15.80
2018-10-19T04:26:27.122Z,15.80
2018-10-19T04:27:00.615Z,15.70
2018-10-19T04:27:34.091Z,15.80
2018-10-19T04:28:07.598Z,15.70
2018-10-19T04:28:42.014Z,15.70
2018-10-19T04:29:15.601Z,15.80
2018-10-19T04:29:49.245Z,15.70
2018-10-19T04:30:22.731Z,15.70
2018-10-19T04:30:56.195Z,15.80
2018-10-19T04:31:29.711Z,15.70
2018-10-19T04:32:03.237Z,15.80
2018-10-19T04:32:36.683Z,15.80
2018-10-19T04:33:10.325Z,15.80
2018-10-19T04:33:43.693Z,15.80
2018-10-19T04:34:17.191Z,15.80
2018-10-19T04:34:50.786Z,15.70
2018-10-19T04:35:24.250Z,15.70
2018-10-19T04:35:57.872Z,15.70
2018-10-19T04:36:31.321Z,15.70
2018-10-19T04:37:06.167Z,15.70
2018-10-19T04:37:39.733Z,15.70
2018-10-19T04:38:13.191Z,15.70
2018-10-19T04:38:46.743Z,15.70
2018-10-19T04:39:20.227Z,15.70
2018-10-19T04:39:53.692Z,15.70
2018-10-19T04:40:27.183Z,15.70
2018-10-19T04:41:00.727Z,15.70
2018-10-19T04:44:32.453Z,15.70
2018-10-19T04:45:06.640Z,15.50
2018-10-19T04:45:40.107Z,15.50
2018-10-19T04:46:13.930Z,15.50
2018-10-19T04:46:47.397Z,15.50
2018-10-19T04:47:20.877Z,15.50
2018-10-19T04:47:54.390Z,15.50
2018-10-19T04:48:28.672Z,15.50
2018-10-19T04:49:02.244Z,15.50
2018-10-19T04:49:35.700Z,15.50
2018-10-19T04:50:09.253Z,15.50
2018-10-19T04:50:42.883Z,15.50
2018-10-19T04:51:16.386Z,15.50
2018-10-19T04:51:49.852Z,15.50
2018-10-19T04:52:23.333Z,15.50
2018-10-19T04:52:56.836Z,15.50
2018-10-19T04:53:30.418Z,15.50
2018-10-19T04:54:03.920Z,15.40
2018-10-19T04:54:37.441Z,15.40
2018-10-19T04:55:15.380Z,15.40
2018-10-19T04:55:48.855Z,15.40
2018-10-19T04:56:22.323Z,15.40
2018-10-19T04:56:55.801Z,15.40
2018-10-19T04:57:29.461Z,15.40
2018-10-19T04:58:02.998Z,15.40
2018-10-19T04:58:36.528Z,15.40
2018-10-19T04:59:10.128Z,15.40
2018-10-19T04:59:43.510Z,15.40
2018-10-19T05:00:19.784Z,15.40
2018-10-19T05:00:53.303Z,15.40
2018-10-19T05:01:26.845Z,15.40
2018-10-19T05:02:00.407Z,15.40
2018-10-19T05:02:34.459Z,15.40
2018-10-19T05:03:07.932Z,15.30
2018-10-19T05:03:41.401Z,15.40
2018-10-19T05:04:14.900Z,15.40
2018-10-19T05:04:48.446Z,15.40
2018-10-19T05:05:21.976Z,15.40
2018-10-19T05:05:55.499Z,15.40
2018-10-19T05:06:28.931Z,15.40
2018-10-19T05:07:02.506Z,15.40
2018-10-19T05:07:36.167Z,15.40
2018-10-19T05:08:09.760Z,15.40
2018-10-19T05:08:43.265Z,15.40
2018-10-19T05:09:16.748Z,15.40
2018-10-19T05:09:50.240Z,15.40
2018-10-19T05:10:23.729Z,15.40
2018-10-19T05:10:57.210Z,15.40
2018-10-19T05:11:30.783Z,15.40
2018-10-19T05:12:04.328Z,15.40
2018-10-19T05:12:37.918Z,15.30
2018-10-19T05:13:11.352Z,15.30
2018-10-19T05:13:44.820Z,15.30
2018-10-19T05:14:18.416Z,15.30
2018-10-19T05:14:51.832Z,15.30
2018-10-19T05:15:25.322Z,15.30
2018-10-19T05:15:58.792Z,15.40
2018-10-19T05:16:32.305Z,15.30
2018-10-19T05:17:06.279Z,15.30
2018-10-19T05:17:40.090Z,15.30
2018-10-19T05:18:13.531Z,15.30
2018-10-19T05:18:47.158Z,15.30
2018-10-19T05:19:20.641Z,15.30
2018-10-19T05:19:54.157Z,15.40
2018-10-19T05:20:27.570Z,15.40
2018-10-19T05:21:01.241Z,15.30
2018-10-19T05:21:35.483Z,15.30
2018-10-19T05:22:08.961Z,15.30
2018-10-19T05:22:42.463Z,15.30
2018-10-19T05:23:16.069Z,15.30
2018-10-19T05:23:49.434Z,15.30
2018-10-19T05:24:22.982Z,15.30
2018-10-19T05:24:56.436Z,15.30
2018-10-19T05:25:30.052Z,15.30
2018-10-19T05:26:03.839Z,15.30
2018-10-19T05:26:37.274Z,15.30
2018-10-19T05:27:10.748Z,15.30
2018-10-19T05:27:44.194Z,15.30
2018-10-19T05:28:17.728Z,15.30
2018-10-19T05:28:51.248Z,15.30
2018-10-19T05:29:24.732Z,15.30
2018-10-19T05:29:58.201Z,15.30
2018-10-19T05:30:31.667Z,15.20
2018-10-19T05:31:05.929Z,15.20
2018-10-19T05:31:39.463Z,15.20
2018-10-19T05:32:13.475Z,15.30
2018-10-19T05:32:47.032Z,15.30
2018-10-19T05:33:20.540Z,15.20
2018-10-19T05:33:55.948Z,15.20
2018-10-19T05:34:29.455Z,15.30
2018-10-19T05:35:02.970Z,15.20
2018-10-19T05:35:36.527Z,15.30
2018-10-19T05:36:09.971Z,15.30
2018-10-19T05:36:43.493Z,15.20
2018-10-19T05:37:17.042Z,15.20
2018-10-19T05:37:50.442Z,15.20
2018-10-19T05:38:23.928Z,15.20
2018-10-19T05:38:57.374Z,15.20
2018-10-19T05:39:30.886Z,15.20
2018-10-19T05:40:04.680Z,15.20
2018-10-19T05:40:38.130Z,15.20
2018-10-19T05:41:11.702Z,15.10
2018-10-19T05:41:45.144Z,15.10
2018-10-19T05:42:18.718Z,15.10
2018-10-19T05:42:52.182Z,15.10
2018-10-19T05:43:25.630Z,15.10
2018-10-19T05:43:59.130Z,15.10
2018-10-19T05:44:32.553Z,15.10
2018-10-19T05:45:08.463Z,15.10
2018-10-19T05:45:41.996Z,15.10
2018-10-19T05:46:15.476Z,15.10
2018-10-19T05:46:48.972Z,15.10
2018-10-19T05:47:22.453Z,15.10
2018-10-19T05:47:55.931Z,15.10
2018-10-19T05:48:29.454Z,15.10
2018-10-19T05:49:02.950Z,15.10
2018-10-19T05:49:36.443Z,15.10
2018-10-19T05:50:11.304Z,15.10
2018-10-19T05:50:44.717Z,15.10
2018-10-19T05:51:18.198Z,15.10
2018-10-19T05:51:51.722Z,15.10
2018-10-19T05:52:25.263Z,15.00
2018-10-19T05:52:58.753Z,15.00
2018-10-19T05:53:32.208Z,15.00
2018-10-19T05:54:06.209Z,15.00
2018-10-19T05:54:39.901Z,15.00
2018-10-19T05:55:13.413Z,15.00
2018-10-19T05:55:46.858Z,15.00
2018-10-19T05:56:20.360Z,15.00
2018-10-19T05:56:53.911Z,15.00
2018-10-19T05:57:27.387Z,15.00
2018-10-19T05:58:00.845Z,15.00
2018-10-19T05:58:34.446Z,15.00
2018-10-19T05:59:08.068Z,15.00
2018-10-19T05:59:41.454Z,15.00
2018-10-19T06:00:15.005Z,15.00
2018-10-19T06:00:48.479Z,15.00
2018-10-19T06:01:21.978Z,15.00
2018-10-19T06:01:55.518Z,15.00
2018-10-19T06:02:29.477Z,15.00
2018-10-19T06:03:02.842Z,15.00
2018-10-19T06:03:36.303Z,15.00
2018-10-19T06:04:09.803Z,15.00
2018-10-19T06:04:43.291Z,15.00
2018-10-19T06:05:16.911Z,15.00
2018-10-19T06:05:50.425Z,15.00
2018-10-19T06:06:23.937Z,15.00
2018-10-19T06:06:57.486Z,15.00
2018-10-19T06:07:31.059Z,15.00
2018-10-19T06:08:04.581Z,15.00
2018-10-19T06:08:38.094Z,15.00
2018-10-19T06:09:11.754Z,15.00
2018-10-19T06:09:45.286Z,15.00
2018-10-19T06:10:18.797Z,15.00
2018-10-19T06:10:52.310Z,15.00
2018-10-19T06:11:25.849Z,15.00
2018-10-19T06:11:59.360Z,15.00
2018-10-19T06:12:32.835Z,15.00
2018-10-19T06:13:06.375Z,15.00
2018-10-19T06:13:39.868Z,15.00
2018-10-19T06:14:13.457Z,15.00
2018-10-19T06:14:47.460Z,15.00
2018-10-19T06:15:20.932Z,15.00
2018-10-19T06:15:54.439Z,15.00
2018-10-19T06:16:27.936Z,15.00
2018-10-19T06:17:01.558Z,15.00
2018-10-19T06:17:35.047Z,15.00
2018-10-19T06:18:10.119Z,15.00
2018-10-19T06:18:45.231Z,15.00
2018-10-19T06:19:20.810Z,15.00
2018-10-19T06:19:55.030Z,15.00
2018-10-19T06:20:28.510Z,15.00
2018-10-19T06:21:02.405Z,15.00
2018-10-19T06:21:35.812Z,15.00
2018-10-19T06:22:09.299Z,15.00
2018-10-19T06:22:42.744Z,15.10
2018-10-19T06:23:16.310Z,15.10
2018-10-19T06:23:49.786Z,15.10
2018-10-19T06:24:23.275Z,15.10
2018-10-19T06:24:56.759Z,15.00
2018-10-19T06:25:30.273Z,15.10
2018-10-19T06:26:03.885Z,15.10
2018-10-19T06:26:37.333Z,15.10
2018-10-19T06:27:10.813Z,15.10
2018-10-19T06:27:46.670Z,15.10
2018-10-19T06:28:21.116Z,15.10
2018-10-19T06:28:54.704Z,15.10
2018-10-19T06:29:29.386Z,15.10
2018-10-19T06:30:03.108Z,15.10
2018-10-19T06:30:36.685Z,15.10
2018-10-19T06:31:10.319Z,15.10
2018-10-19T06:31:43.871Z,15.00
2018-10-19T06:32:17.416Z,15.10
2018-10-19T06:32:50.869Z,15.10
2018-10-19T06:33:24.374Z,15.10
2018-10-19T06:33:58.042Z,15.10
2018-10-19T06:34:31.527Z,15.10
2018-10-19T06:35:05.481Z,15.10
2018-10-19T06:35:38.958Z,15.10
2018-10-19T06:36:12.449Z,15.10
2018-10-19T06:36:45.987Z,15.10
2018-10-19T06:37:19.501Z,15.10
2018-10-19T06:37:53.826Z,15.10
2018-10-19T06:38:27.310Z,15.10
2018-10-19T06:39:00.877Z,15.10
2018-10-19T06:39:34.395Z,15.10
2018-10-19T06:40:07.884Z,15.10
2018-10-19T06:40:41.349Z,15.10
2018-10-19T06:41:14.907Z,15.10
2018-10-19T06:41:48.378Z,15.10
2018-10-19T06:42:21.805Z,15.10
2018-10-19T06:42:55.281Z,15.10
2018-10-19T06:43:30.170Z,15.10
2018-10-19T06:44:03.811Z,15.00
2018-10-19T06:44:38.003Z,15.10
2018-10-19T06:45:11.515Z,15.10
2018-10-19T06:45:45.048Z,15.10
2018-10-19T06:46:18.647Z,15.10
2018-10-19T06:46:52.189Z,15.10
2018-10-19T06:47:26.515Z,15.10
2018-10-19T06:48:00.861Z,15.00
2018-10-19T06:48:34.448Z,15.10
2018-10-19T06:49:08.022Z,15.10
2018-10-19T06:49:41.517Z,15.10
2018-10-19T06:50:15.301Z,15.10
2018-10-19T06:50:48.832Z,15.10
2018-10-19T06:51:22.396Z,15.10
2018-10-19T06:51:55.939Z,15.10
2018-10-19T06:52:29.486Z,15.10
2018-10-19T06:53:03.073Z,15.10
2018-10-19T06:53:36.578Z,15.10
2018-10-19T06:54:10.048Z,15.10
2018-10-19T06:54:43.531Z,15.10
2018-10-19T06:55:19.344Z,15.10
2018-10-19T06:55:52.802Z,15.10
2018-10-19T06:56:26.317Z,15.10
2018-10-19T06:56:59.809Z,15.10
2018-10-19T06:57:33.314Z,15.10
2018-10-19T06:58:06.821Z,15.00
2018-10-19T06:58:40.311Z,15.10
2018-10-19T06:59:13.800Z,15.10
2018-10-19T06:59:47.720Z,15.00
2018-10-19T07:00:21.243Z,15.10
2018-10-19T07:00:54.750Z,15.10
2018-10-19T07:01:28.228Z,15.10
2018-10-19T07:02:01.756Z,15.10
2018-10-19T07:02:35.231Z,15.10
2018-10-19T07:03:09.078Z,15.10
2018-10-19T07:03:42.598Z,15.10
2018-10-19T07:04:16.216Z,15.10
2018-10-19T07:04:49.752Z,15.10
2018-10-19T07:05:23.215Z,15.10
2018-10-19T07:05:56.727Z,15.10
2018-10-19T07:06:30.251Z,15.10
2018-10-19T07:07:04.373Z,15.10
2018-10-19T07:07:38.047Z,15.10
2018-10-19T07:08:11.581Z,15.10
2018-10-19T07:08:45.073Z,15.10
2018-10-19T07:09:18.585Z,15.20
2018-10-19T07:09:52.145Z,15.20
2018-10-19T07:10:25.896Z,15.20
2018-10-19T07:10:59.504Z,15.10
2018-10-19T07:11:33.246Z,15.20
2018-10-19T07:12:07.188Z,15.10
2018-10-19T07:12:41.185Z,15.20
2018-10-19T07:13:14.727Z,15.20
2018-10-19T07:13:48.246Z,15.20
2018-10-19T07:14:21.719Z,15.20
2018-10-19T07:14:55.207Z,15.20
2018-10-19T07:15:28.666Z,15.20
2018-10-19T07:16:02.189Z,15.20
2018-10-19T07:16:35.648Z,15.20
2018-10-19T07:17:09.214Z,15.20